createdAt,value
2023-04-20T00:04:33.081Z,64.34
2023-04-20T00:09:34.545Z,64.76
2023-04-20T00:14:36.056Z,64.75
2023-04-20T00:19:37.489Z,65.34
2023-04-20T00:24:39.070Z,65.25
2023-04-20T00:29:40.487Z,65.13
2023-04-20T00:34:41.929Z,64.51
2023-04-20T00:39:43.375Z,64.87
2023-04-20T00:44:44.841Z,65.47
2023-04-20T00:49:46.351Z,64.97
2023-04-20T00:54:48.529Z,64.39
2023-04-20T00:59:51.159Z,65.83
2023-04-20T01:04:52.594Z,65.09
2023-04-20T01:09:54.059Z,65.52
2023-04-20T01:14:55.592Z,65.14
2023-04-20T01:19:57.042Z,65.31
2023-04-20T01:24:58.533Z,65.23
2023-04-20T01:30:01.441Z,65.48
2023-04-20T01:35:03.502Z,67.44
2023-04-20T01:40:05.858Z,67.08
2023-04-20T01:45:08.189Z,66.69
2023-04-20T01:50:10.588Z,68.22
2023-04-20T01:55:12.025Z,67.11
2023-04-20T02:00:14.089Z,66.66
2023-04-20T02:05:18.707Z,67.60
2023-04-20T02:10:20.196Z,67.48
2023-04-20T02:15:21.810Z,68.10
2023-04-20T02:20:23.515Z,68.35
2023-04-20T02:25:24.974Z,68.40
2023-04-20T02:30:26.590Z,68.04
2023-04-20T02:35:28.014Z,68.13
2023-04-20T02:40:29.493Z,68.64
2023-04-20T02:45:32.997Z,67.29
2023-04-20T02:50:34.597Z,67.64
2023-04-20T02:55:49.845Z,68.54
2023-04-20T03:01:11.021Z,67.10
2023-04-20T03:06:13.602Z,67.88
2023-04-20T03:11:19.628Z,67.81
2023-04-20T03:16:21.681Z,66.29
2023-04-20T03:21:25.983Z,65.39
2023-04-20T03:26:27.590Z,65.62
2023-04-20T03:31:41.565Z,66.25
2023-04-20T03:36:45.343Z,65.37
2023-04-20T03:41:46.870Z,64.40
2023-04-20T03:46:48.307Z,65.81
2023-04-20T03:51:49.793Z,65.62
2023-04-20T03:56:51.231Z,66.04
2023-04-20T04:01:53.414Z,66.08
2023-04-20T04:06:55.385Z,66.31
2023-04-20T04:11:58.855Z,67.09
2023-04-20T04:17:03.029Z,66.29
2023-04-20T04:22:06.692Z,65.88
2023-04-20T04:27:13.110Z,66.25
2023-04-20T04:32:23.204Z,65.88
2023-04-20T04:37:25.015Z,65.66
2023-04-20T04:42:30.031Z,66.15
2023-04-20T04:47:35.688Z,65.23
2023-04-20T04:52:37.261Z,65.67
2023-04-20T04:57:38.858Z,65.90
2023-04-20T05:02:40.849Z,66.19
2023-04-20T05:07:42.564Z,65.28
2023-04-20T05:12:44.013Z,66.57
2023-04-20T05:17:45.550Z,66.95
2023-04-20T05:22:47.132Z,66.88
2023-04-20T05:27:48.660Z,66.29
2023-04-20T05:32:52.168Z,66.87
2023-04-20T05:37:54.029Z,66.34
2023-04-20T05:42:55.450Z,66.25
2023-04-20T05:47:57.413Z,66.25
2023-04-20T05:52:59.022Z,66.45
2023-04-20T05:58:00.467Z,66.74
2023-04-20T06:03:02.207Z,66.01
2023-04-20T06:08:04.073Z,65.59
2023-04-20T06:13:05.645Z,65.21
2023-04-20T06:18:07.200Z,65.36
2023-04-20T06:23:08.691Z,65.81
2023-04-20T06:28:10.170Z,67.15
2023-04-20T06:33:12.460Z,66.34
2023-04-20T06:38:14.110Z,65.75
2023-04-20T06:43:15.596Z,65.51
2023-04-20T06:48:30.684Z,65.08
2023-04-20T06:53:33.427Z,64.81
2023-04-20T06:58:34.901Z,64.35
2023-04-20T07:03:36.623Z,64.47
2023-04-20T07:08:39.308Z,64.90
2023-04-20T07:13:40.792Z,64.59
2023-04-20T07:18:42.366Z,64.81
2023-04-20T07:23:45.107Z,64.84
2023-04-20T07:28:46.819Z,64.29
2023-04-20T07:33:48.275Z,64.00
2023-04-20T07:38:49.824Z,63.83
2023-04-20T07:43:51.264Z,63.98
2023-04-20T07:48:52.695Z,63.91
2023-04-20T07:53:54.180Z,64.00
2023-04-20T07:58:55.719Z,64.44
2023-04-20T08:03:57.428Z,64.02
2023-04-20T08:08:59.188Z,63.50
2023-04-20T08:14:00.665Z,61.81
2023-04-20T08:19:02.129Z,62.44
2023-04-20T08:24:04.466Z,63.36
2023-04-20T08:29:05.965Z,63.22
2023-04-20T08:34:07.412Z,63.24
2023-04-20T08:39:18.907Z,62.59
2023-04-20T08:44:20.556Z,64.14
2023-04-20T08:49:22.384Z,64.12
2023-04-20T08:54:24.820Z,63.79
2023-04-20T08:59:26.344Z,63.80
2023-04-20T09:04:28.185Z,63.87
2023-04-20T09:09:29.769Z,62.75
2023-04-20T09:14:42.768Z,63.58
2023-04-20T09:19:45.390Z,63.67
2023-04-20T09:24:47.112Z,64.16
2023-04-20T09:30:02.063Z,64.27
2023-04-20T09:35:03.674Z,64.54
2023-04-20T09:40:06.654Z,64.03
2023-04-20T09:45:08.827Z,64.35
2023-04-20T09:50:24.645Z,64.25
2023-04-20T09:55:30.791Z,64.01
2023-04-20T10:00:32.277Z,63.53
2023-04-20T10:05:35.588Z,64.48
2023-04-20T10:10:48.676Z,64.79
2023-04-20T10:15:50.179Z,63.36
2023-04-20T10:21:03.894Z,63.68
2023-04-20T10:26:05.402Z,62.96
2023-04-20T10:31:08.255Z,64.11
2023-04-20T10:36:09.864Z,63.51
2023-04-20T10:41:13.144Z,60.62
2023-04-20T10:46:18.540Z,59.92
2023-04-20T10:51:20.589Z,61.38
2023-04-20T10:56:22.082Z,60.21
2023-04-20T11:01:23.592Z,59.79
2023-04-20T11:06:25.140Z,59.71
2023-04-20T11:11:27.848Z,59.65
2023-04-20T11:16:44.279Z,60.61
2023-04-20T11:21:49.169Z,61.32
2023-04-20T11:26:51.874Z,61.74
2023-04-20T11:31:53.494Z,63.90
2023-04-20T11:36:55.090Z,62.66
2023-04-20T11:41:56.741Z,63.40
2023-04-20T11:46:58.936Z,63.26
2023-04-20T11:52:00.404Z,63.57
2023-04-20T11:57:01.853Z,64.31
2023-04-20T12:02:03.466Z,63.94
2023-04-20T12:07:05.053Z,64.33
2023-04-20T12:12:07.586Z,64.91
2023-04-20T12:17:09.050Z,65.60
2023-04-20T12:22:10.508Z,65.91
2023-04-20T12:27:11.992Z,65.91
2023-04-20T12:32:13.463Z,66.50
2023-04-20T12:37:15.068Z,66.54
2023-04-20T12:42:16.509Z,66.30
2023-04-20T12:47:17.939Z,66.78
2023-04-20T12:52:19.439Z,66.65
2023-04-20T12:57:20.880Z,66.50
2023-04-20T13:02:22.562Z,65.20
2023-04-20T13:07:24.736Z,65.44
2023-04-20T13:12:26.377Z,65.42
2023-04-20T13:17:27.886Z,65.15
2023-04-20T13:22:29.324Z,63.14
2023-04-20T13:27:30.825Z,63.21
2023-04-20T13:32:32.992Z,64.32
2023-04-20T13:37:34.501Z,65.49
2023-04-20T13:42:35.997Z,65.94
2023-04-20T13:47:39.359Z,66.53
2023-04-20T13:52:40.931Z,67.00
2023-04-20T13:57:42.445Z,66.46
2023-04-20T14:02:44.062Z,66.08
2023-04-20T14:07:45.521Z,66.05
2023-04-20T14:12:47.025Z,66.17
2023-04-20T14:17:49.690Z,64.95
2023-04-20T14:22:52.967Z,65.42
2023-04-20T14:27:54.401Z,66.45
2023-04-20T14:32:57.309Z,65.94
2023-04-20T14:37:58.833Z,67.03
2023-04-20T14:43:00.401Z,66.57
2023-04-20T14:48:01.877Z,66.15
2023-04-20T14:53:03.397Z,65.38
2023-04-20T14:58:04.913Z,65.02
2023-04-20T15:03:06.500Z,66.00
2023-04-20T15:08:08.087Z,66.75
2023-04-20T15:13:09.555Z,66.36
2023-04-20T15:18:11.043Z,67.14
2023-04-20T15:23:12.621Z,65.89
2023-04-20T15:28:14.147Z,66.98
2023-04-20T15:33:15.734Z,65.75
2023-04-20T15:38:17.171Z,67.62
2023-04-20T15:43:18.669Z,67.59
2023-04-20T15:48:20.146Z,67.96
2023-04-20T15:53:21.758Z,67.65
2023-04-20T15:58:23.250Z,67.17
2023-04-20T16:03:24.881Z,67.15
2023-04-20T16:08:26.376Z,67.23
2023-04-20T16:13:27.816Z,67.50
2023-04-20T16:18:29.392Z,68.25
2023-04-20T16:23:30.826Z,69.04
2023-04-20T16:28:32.274Z,68.13
2023-04-20T16:33:36.772Z,68.75
2023-04-20T16:38:38.444Z,68.50
2023-04-20T16:43:39.902Z,68.69
2023-04-20T16:48:41.679Z,68.32
2023-04-20T16:53:43.163Z,68.47
2023-04-20T16:58:44.594Z,68.48
2023-04-20T17:03:46.275Z,68.55
2023-04-20T17:08:47.836Z,67.96
2023-04-20T17:13:49.265Z,68.56
2023-04-20T17:18:50.679Z,68.81
2023-04-20T17:23:52.084Z,68.58
2023-04-20T17:28:53.594Z,68.67
2023-04-20T17:33:55.121Z,69.23
2023-04-20T17:38:56.566Z,66.69
2023-04-20T17:43:58.005Z,66.27
2023-04-20T17:49:00.609Z,65.79
2023-04-20T17:54:02.154Z,65.52
2023-04-20T17:59:03.761Z,65.62
2023-04-20T18:04:05.622Z,64.45
2023-04-20T18:09:07.253Z,64.72
2023-04-20T18:14:08.892Z,63.89
2023-04-20T18:19:10.397Z,65.00
2023-04-20T18:24:11.952Z,64.93
2023-04-20T18:29:13.459Z,64.73
2023-04-20T18:34:15.287Z,64.50
2023-04-20T18:39:16.738Z,65.22
2023-04-20T18:44:18.502Z,65.94
2023-04-20T18:49:20.196Z,65.53
2023-04-20T18:54:21.690Z,65.43
2023-04-20T18:59:23.095Z,65.76
2023-04-20T19:04:24.835Z,66.22
2023-04-20T19:09:26.334Z,66.03
2023-04-20T19:14:27.831Z,65.98
2023-04-20T19:19:29.250Z,65.99
2023-04-20T19:24:31.057Z,66.54
2023-04-20T19:29:32.527Z,66.54
2023-04-20T19:34:34.047Z,67.91
2023-04-20T19:39:35.486Z,67.94
2023-04-20T19:44:36.913Z,68.68
2023-04-20T19:49:38.425Z,68.81
2023-04-20T19:54:39.929Z,68.45
2023-04-20T19:59:41.373Z,68.50
2023-04-20T20:04:43.144Z,68.29
2023-04-20T20:09:44.722Z,68.32
2023-04-20T20:14:46.182Z,68.95
2023-04-20T20:19:47.649Z,69.22
2023-04-20T20:24:49.135Z,68.39
2023-04-20T20:29:50.558Z,68.05
2023-04-20T20:34:52.061Z,68.67
2023-04-20T20:39:53.490Z,68.20
2023-04-20T20:44:54.900Z,69.45
2023-04-20T20:49:56.348Z,69.09
2023-04-20T20:54:57.828Z,68.96
2023-04-20T20:59:59.266Z,68.42
2023-04-20T21:05:00.693Z,68.44
2023-04-20T21:10:02.512Z,68.63
2023-04-20T21:15:04.273Z,69.27
2023-04-20T21:20:06.626Z,67.89
2023-04-20T21:25:08.245Z,69.14
2023-04-20T21:30:10.582Z,69.12
2023-04-20T21:35:12.098Z,68.55
2023-04-20T21:40:13.538Z,69.17
2023-04-20T21:45:15.312Z,68.60
2023-04-20T21:50:16.844Z,67.25
2023-04-20T21:55:18.381Z,67.77
2023-04-20T22:00:20.734Z,68.11
2023-04-20T22:05:22.358Z,68.13
2023-04-20T22:10:28.006Z,69.66
2023-04-20T22:15:29.736Z,69.48
2023-04-20T22:20:31.908Z,68.56
2023-04-20T22:25:33.358Z,68.58
2023-04-20T22:30:35.288Z,68.82
2023-04-20T22:35:36.784Z,68.68
2023-04-20T22:40:38.246Z,69.69
2023-04-20T22:45:39.860Z,69.61
2023-04-20T22:50:41.460Z,69.75
2023-04-20T22:55:42.896Z,69.37
2023-04-20T23:00:44.465Z,69.17
2023-04-20T23:05:45.951Z,68.50
2023-04-20T23:10:47.392Z,67.32
2023-04-20T23:15:48.877Z,67.58
2023-04-20T23:20:50.368Z,67.86
2023-04-20T23:25:51.886Z,67.63
2023-04-20T23:30:53.329Z,68.61
2023-04-20T23:35:54.761Z,67.17
2023-04-20T23:40:56.278Z,67.64
2023-04-20T23:45:57.770Z,68.67
2023-04-20T23:50:59.635Z,67.34
2023-04-20T23:56:01.075Z,68.35
